Time;durP1;ratioP1;P1;durP2;ratioP2;P2;SDS_P1;SDS_P2;PMS_P1;PMS_P2;Temp;Humidity;BMP_temperature;BMP_pressure;BME280_temperature;BME280_humidity;BME280_pressure;Samples;Min_cycle;Max_cycle;Signal;HPM_P1;HPM_P2
2022/10/06 00:00:09;;;;;;;;;;;;;;;21.53;60.55;101289.88;5009567;28;3062;-62
2022/10/06 00:02:35;;;;;;;;;;;;;;;21.49;60.65;101292.59;5017439;28;1593;-62
2022/10/06 00:05:02;;;;;;;;;;;;;;;21.48;60.54;101288.19;5011951;28;2878;-62
2022/10/06 00:07:28;;;;;;;;;;;;;;;21.48;60.55;101293.97;5014927;28;2956;-62
2022/10/06 00:09:54;;;;;;;;;;;;;;;21.48;60.64;101291.06;5011245;28;3014;-63
2022/10/06 00:12:21;;;;;;;;;;;;;;;21.49;60.57;101295.47;5016132;28;2639;-62
2022/10/06 00:14:47;;;;;;;;;;;;;;;21.48;60.79;101302.59;5011556;28;2864;-62
2022/10/06 00:17:13;;;;;;;;;;;;;;;21.47;60.57;101312.66;5011668;28;2984;-62
2022/10/06 00:19:40;;;;;;;;;;;;;;;21.48;60.48;101306.22;5014485;28;2827;-62
2022/10/06 00:22:06;;;;;;;;;;;;;;;21.47;60.60;101301.13;5010723;28;2930;-62
2022/10/06 00:24:33;;;;;;;;;;;;;;;21.47;60.63;101306.88;5010931;28;2957;-62
2022/10/06 00:26:59;;;;;;;;;;;;;;;21.48;60.75;101306.22;5015306;28;3316;-62
2022/10/06 00:29:26;;;;;;;;;;;;;;;21.49;60.47;101315.63;5013566;28;2861;-62
2022/10/06 00:31:52;;;;;;;;;;;;;;;21.48;60.59;101314.88;5011146;28;2931;-62
2022/10/06 00:34:18;;;;;;;;;;;;;;;21.47;60.77;101315.53;5015213;28;3089;-62
2022/10/06 00:36:45;;;;;;;;;;;;;;;21.50;60.78;101317.13;5012309;28;3044;-62
2022/10/06 00:39:11;;;;;;;;;;;;;;;21.48;60.63;101320.63;5015506;28;2698;-62
2022/10/06 00:41:37;;;;;;;;;;;;;;;21.49;60.59;101324.28;5010928;28;2908;-62
2022/10/06 00:44:04;;;;;;;;;;;;;;;21.47;61.03;101318.41;5012229;28;2977;-62
2022/10/06 00:46:30;;;;;;;;;;;;;;;21.45;60.83;101329.84;5019286;28;2926;-63
2022/10/06 00:48:58;;;;;;;;;;;;;;;21.49;60.61;101325.00;5013916;28;2509;-62
2022/10/06 00:51:25;;;;;;;;;;;;;;;21.46;60.90;101332.09;5014890;28;2926;-63
2022/10/06 00:53:51;;;;;;;;;;;;;;;21.48;60.70;101332.16;4999034;28;2948;-62
2022/10/06 00:56:17;;;;;;;;;;;;;;;21.47;60.83;101324.91;5029543;28;2823;-62
2022/10/06 00:58:44;;;;;;;;;;;;;;;21.47;60.85;101335.69;5009532;28;3019;-62
2022/10/06 01:01:10;;;;;;;;;;;;;;;21.47;60.73;101329.94;5012638;28;2931;-63
2022/10/06 01:03:38;;;;;;;;;;;;;;;21.46;60.95;101337.84;5013992;28;2975;-63
2022/10/06 01:06:04;;;;;;;;;;;;;;;21.47;60.79;101335.69;5014702;28;2796;-63
2022/10/06 01:08:32;;;;;;;;;;;;;;;21.47;60.79;101350.09;5010618;28;3182;-62
2022/10/06 01:10:58;;;;;;;;;;;;;;;21.47;60.77;101344.34;5008912;28;2891;-63
2022/10/06 01:13:28;;;;;;;;;;;;;;;21.48;60.90;101342.94;5007014;28;3001;-62
2022/10/06 01:16:00;;;;;;;;;;;;;;;21.47;61.05;101350.84;5011497;28;2915;-62
2022/10/06 01:18:27;;;;;;;;;;;;;;;21.47;60.97;101350.84;5007684;28;2843;-62
2022/10/06 01:20:58;;;;;;;;;;;;;;;21.47;61.05;101358.75;4992818;28;3016;-63
2022/10/06 01:23:25;;;;;;;;;;;;;;;21.47;60.79;101361.63;5014602;28;2880;-62
2022/10/06 01:25:51;;;;;;;;;;;;;;;21.47;60.80;101353.00;5015163;28;2703;-62
2022/10/06 01:28:17;;;;;;;;;;;;;;;21.45;61.01;101355.75;5009961;28;2918;-62
2022/10/06 01:30:51;;;;;;;;;;;;;;;21.45;61.06;101355.75;5006367;28;2575;-62
2022/10/06 01:33:19;;;;;;;;;;;;;;;21.45;60.92;101356.50;5001968;28;2902;-62
2022/10/06 01:35:47;;;;;;;;;;;;;;;21.45;60.96;101355.75;5028168;28;2919;-62
2022/10/06 01:38:13;;;;;;;;;;;;;;;21.47;60.74;101355.88;5003670;28;2931;-62
2022/10/06 01:40:40;;;;;;;;;;;;;;;21.46;61.13;101357.25;5013960;28;2825;-62
2022/10/06 01:43:06;;;;;;;;;;;;;;;21.46;60.85;101354.38;5021091;28;2887;-62
2022/10/06 01:45:33;;;;;;;;;;;;;;;21.47;61.00;101358.75;5015678;28;3222;-62
2022/10/06 01:47:59;;;;;;;;;;;;;;;21.47;60.72;101356.59;5012590;28;2678;-62
2022/10/06 01:50:26;;;;;;;;;;;;;;;21.46;60.67;101357.25;5028466;28;2920;-62
2022/10/06 01:52:54;;;;;;;;;;;;;;;21.46;60.78;101357.25;5012069;28;2894;-62
2022/10/06 01:55:21;;;;;;;;;;;;;;;21.46;61.01;101345.72;5028096;28;2963;-61
2022/10/06 01:57:47;;;;;;;;;;;;;;;21.45;60.82;101347.84;5009372;28;2956;-62
2022/10/06 02:00:14;;;;;;;;;;;;;;;21.47;61.09;101350.84;5013571;28;2974;-62
2022/10/06 02:02:41;;;;;;;;;;;;;;;21.44;61.15;101354.25;5019423;28;2811;-62
2022/10/06 02:05:08;;;;;;;;;;;;;;;21.42;60.98;101349.16;5011230;28;2983;-62
2022/10/06 02:07:37;;;;;;;;;;;;;;;21.46;61.11;101357.25;5012507;28;2964;-62
2022/10/06 02:10:04;;;;;;;;;;;;;;;21.43;61.16;101350.63;5017385;28;2916;-62
2022/10/06 02:12:31;;;;;;;;;;;;;;;21.43;61.00;101355.66;5012490;28;2840;-62
2022/10/06 02:14:59;;;;;;;;;;;;;;;21.46;60.92;101358.00;5009927;28;3235;-62
2022/10/06 02:17:25;;;;;;;;;;;;;;;21.43;61.07;101359.28;5010089;28;2994;-62
2022/10/06 02:19:52;;;;;;;;;;;;;;;21.44;61.20;101355.03;5021518;28;2287;-62
2022/10/06 02:22:18;;;;;;;;;;;;;;;21.42;61.13;101366.44;5027312;28;3023;-62
2022/10/06 02:24:46;;;;;;;;;;;;;;;21.42;60.99;101371.47;5010675;28;2845;-62
2022/10/06 02:27:13;;;;;;;;;;;;;;;21.44;61.00;101371.53;5012587;28;3087;-62
2022/10/06 02:29:40;;;;;;;;;;;;;;;21.43;61.06;101376.56;5005993;28;3015;-62
2022/10/06 02:32:07;;;;;;;;;;;;;;;21.44;61.20;101377.31;5014675;28;2804;-62
2022/10/06 02:34:33;;;;;;;;;;;;;;;21.43;60.94;101375.84;5013063;28;2441;-62
2022/10/06 02:36:59;;;;;;;;;;;;;;;21.42;61.19;101380.13;5022173;28;2740;-62
2022/10/06 02:39:27;;;;;;;;;;;;;;;21.42;60.95;101380.84;5012564;28;2635;-62
2022/10/06 02:41:54;;;;;;;;;;;;;;;21.42;61.00;101397.41;5008891;28;2949;-62
2022/10/06 02:44:22;;;;;;;;;;;;;;;21.43;61.13;101413.28;5024872;28;2910;-62
2022/10/06 02:46:51;;;;;;;;;;;;;;;21.43;61.04;101393.13;5011043;28;2874;-62
2022/10/06 02:49:18;;;;;;;;;;;;;;;21.44;61.10;101397.47;5011274;28;3066;-62
2022/10/06 02:51:45;;;;;;;;;;;;;;;21.45;60.88;101408.38;5028721;28;2835;-62
2022/10/06 02:54:11;;;;;;;;;;;;;;;21.43;61.29;101404.66;5011616;28;3147;-62
2022/10/06 02:56:38;;;;;;;;;;;;;;;21.47;61.05;101413.50;5011141;28;2823;-62
2022/10/06 02:59:04;;;;;;;;;;;;;;;21.44;60.90;101417.66;5013264;28;2951;-62
2022/10/06 03:01:33;;;;;;;;;;;;;;;21.42;61.12;101421.19;5016102;28;3304;-62
2022/10/06 03:04:07;;;;;;;;;;;;;;;21.43;61.28;101421.94;5018948;28;2723;-62
2022/10/06 03:06:33;;;;;;;;;;;;;;;21.43;61.12;101424.81;5033423;28;2899;-62
2022/10/06 03:09:10;;;;;;;;;;;;;;;21.42;61.12;101426.22;5019820;28;2913;-62
2022/10/06 03:11:41;;;;;;;;;;;;;;;21.43;61.04;101439.22;5011938;28;2973;-62
2022/10/06 03:14:10;;;;;;;;;;;;;;;21.42;61.31;101446.38;5007105;28;2757;-62
2022/10/06 03:16:40;;;;;;;;;;;;;;;21.43;61.03;101445.72;5015282;28;3259;-62
2022/10/06 03:19:12;;;;;;;;;;;;;;;21.42;61.15;101449.25;5024947;28;2815;-62
2022/10/06 03:21:41;;;;;;;;;;;;;;;21.43;61.26;101456.50;5030457;28;2918;-62
2022/10/06 03:24:08;;;;;;;;;;;;;;;21.42;61.33;101461.53;5010661;28;2940;-62
2022/10/06 03:26:37;;;;;;;;;;;;;;;21.42;61.04;101467.28;5008514;28;2943;-61
2022/10/06 03:29:03;;;;;;;;;;;;;;;21.39;61.33;101480.03;5031135;28;2955;-62
2022/10/06 03:31:38;;;;;;;;;;;;;;;21.42;61.36;101498.97;5000776;28;2946;-62
2022/10/06 03:34:05;;;;;;;;;;;;;;;21.42;61.36;101506.88;5039787;28;2893;-62
2022/10/06 03:36:32;;;;;;;;;;;;;;;21.41;61.22;101506.13;5048195;28;2705;-61
2022/10/06 03:38:59;;;;;;;;;;;;;;;21.42;61.07;101512.66;5011565;28;2859;-62
2022/10/06 03:41:27;;;;;;;;;;;;;;;21.42;61.21;101524.19;5009657;28;2901;-62
2022/10/06 03:43:53;;;;;;;;;;;;;;;21.41;61.21;101522.66;5046172;28;2804;-62
2022/10/06 03:46:21;;;;;;;;;;;;;;;21.42;61.03;101529.94;5015255;28;2904;-62
2022/10/06 03:48:48;;;;;;;;;;;;;;;21.40;61.27;101529.78;5008483;28;2990;-61
2022/10/06 03:51:19;;;;;;;;;;;;;;;21.42;61.42;101529.94;5030784;28;2713;-62
2022/10/06 03:53:47;;;;;;;;;;;;;;;21.40;61.27;101544.97;5013167;28;2946;-62
2022/10/06 03:56:18;;;;;;;;;;;;;;;21.41;61.40;101551.47;5014053;28;2835;-62
2022/10/06 03:58:45;;;;;;;;;;;;;;;21.41;61.30;101554.34;5017125;28;2773;-63
2022/10/06 04:01:12;;;;;;;;;;;;;;;21.41;61.19;101551.47;5012002;28;2883;-63
2022/10/06 04:03:39;;;;;;;;;;;;;;;21.42;61.27;101564.50;5007328;28;2740;-62
2022/10/06 04:06:06;;;;;;;;;;;;;;;21.42;61.26;101576.03;5015169;28;2837;-62
2022/10/06 04:08:33;;;;;;;;;;;;;;;21.42;61.23;101576.78;5007748;28;2908;-62
2022/10/06 04:11:06;;;;;;;;;;;;;;;21.42;61.45;101584.69;5005249;28;2976;-62
2022/10/06 04:13:32;;;;;;;;;;;;;;;21.46;61.17;101587.75;5011018;28;2979;-63
2022/10/06 04:16:08;;;;;;;;;;;;;;;21.49;60.72;101601.66;5026019;28;2885;-63
2022/10/06 04:18:34;;;;;;;;;;;;;;;21.50;60.97;101596.63;5007327;28;2922;-62
2022/10/06 04:21:00;;;;;;;;;;;;;;;21.46;61.17;101600.06;5014034;28;2769;-63
2022/10/06 04:23:27;;;;;;;;;;;;;;;21.49;60.80;101609.53;5004649;28;2900;-63
2022/10/06 04:25:59;;;;;;;;;;;;;;;21.50;61.11;101611.03;5006965;28;2904;-62
2022/10/06 04:28:26;;;;;;;;;;;;;;;21.49;61.10;101612.44;5027617;28;2907;-62
2022/10/06 04:30:57;;;;;;;;;;;;;;;21.49;60.93;101613.16;5022641;28;2770;-64
2022/10/06 04:33:24;;;;;;;;;;;;;;;21.47;61.08;101624.59;5012714;28;3074;-63
2022/10/06 04:35:57;;;;;;;;;;;;;;;21.47;61.24;101629.59;5011711;28;3263;-63
2022/10/06 04:38:23;;;;;;;;;;;;;;;21.49;61.00;101644.13;5009592;28;2936;-63
2022/10/06 04:40:50;;;;;;;;;;;;;;;21.46;60.99;101651.16;5011958;28;3465;-63
2022/10/06 04:43:16;;;;;;;;;;;;;;;21.46;61.05;101636.75;5014392;28;2991;-63
2022/10/06 04:45:42;;;;;;;;;;;;;;;21.44;60.96;101633.75;5009789;28;2965;-63
2022/10/06 04:48:09;;;;;;;;;;;;;;;21.46;60.96;101645.38;5009510;28;3129;-63
2022/10/06 04:50:35;;;;;;;;;;;;;;;21.47;60.97;101646.91;5026826;28;2937;-64
2022/10/06 04:53:05;;;;;;;;;;;;;;;21.47;60.76;101658.41;5008858;28;2997;-61
2022/10/06 04:55:32;;;;;;;;;;;;;;;21.49;60.56;101667.91;5038954;28;3106;-61
2022/10/06 04:57:59;;;;;;;;;;;;;;;21.45;60.68;101666.94;5027165;28;3021;-61
2022/10/06 05:00:25;;;;;;;;;;;;;;;21.45;61.10;101684.25;5014178;28;3104;-62
2022/10/06 05:02:57;;;;;;;;;;;;;;;21.51;61.20;101678.81;5020541;28;3071;-60
2022/10/06 05:05:23;;;;;;;;;;;;;;;21.52;61.30;101688.94;5007132;28;3991;-67
2022/10/06 05:07:51;;;;;;;;;;;;;;;21.51;61.38;101696.13;5014077;28;2982;-61
2022/10/06 05:10:18;;;;;;;;;;;;;;;21.50;61.86;101703.25;5003137;28;2987;-64
2022/10/06 05:12:45;;;;;;;;;;;;;;;21.51;61.94;101699.00;5005723;28;2962;-60
2022/10/06 05:15:11;;;;;;;;;;;;;;;21.49;61.66;101707.53;5007528;28;2868;-60
2022/10/06 05:17:38;;;;;;;;;;;;;;;21.50;62.01;101720.53;5007515;28;2899;-61
2022/10/06 05:20:05;;;;;;;;;;;;;;;21.49;62.46;101724.81;5028643;28;2933;-60
2022/10/06 05:22:31;;;;;;;;;;;;;;;21.48;62.02;101731.94;5015666;28;1659;-60
2022/10/06 05:24:58;;;;;;;;;;;;;;;21.49;62.05;101736.34;5013863;28;2997;-60
2022/10/06 05:27:24;;;;;;;;;;;;;;;21.48;62.32;101740.59;5030098;28;2599;-60
2022/10/06 05:29:51;;;;;;;;;;;;;;;21.48;62.55;101744.22;5012037;28;2954;-60
2022/10/06 05:32:17;;;;;;;;;;;;;;;21.49;62.30;101751.50;5011033;28;2943;-60
2022/10/06 05:34:43;;;;;;;;;;;;;;;21.48;62.63;101766.53;5020203;28;2805;-60
2022/10/06 05:37:10;;;;;;;;;;;;;;;21.49;62.68;101770.91;5012158;28;3031;-60
2022/10/06 05:39:37;;;;;;;;;;;;;;;21.48;62.18;101775.91;5010944;28;2918;-59
2022/10/06 05:42:03;;;;;;;;;;;;;;;21.67;63.63;101791.34;5002427;28;3374;-59
2022/10/06 05:44:30;;;;;;;;;;;;;;;21.75;65.35;101795.44;5006572;28;3468;-71
2022/10/06 05:46:59;;;;;;;;;;;;;;;21.82;63.54;101796.53;5016715;28;3091;-64
2022/10/06 05:49:26;;;;;;;;;;;;;;;21.70;61.81;101813.16;5009827;28;2888;-68
2022/10/06 05:51:56;;;;;;;;;;;;;;;21.66;61.08;101825.19;5014459;28;3085;-70
2022/10/06 05:54:29;;;;;;;;;;;;;;;21.49;60.36;101834.31;5028472;28;2957;-70
2022/10/06 05:56:55;;;;;;;;;;;;;;;21.44;60.34;101836.22;5013575;28;2581;-69
2022/10/06 05:59:21;;;;;;;;;;;;;;;21.42;60.23;101844.00;5014323;28;2845;-70
2022/10/06 06:01:49;;;;;;;;;;;;;;;21.73;63.11;101855.88;5002843;28;5108;-63
2022/10/06 06:04:23;;;;;;;;;;;;;;;22.05;60.91;101864.84;5013153;28;2955;-64
2022/10/06 06:06:53;;;;;;;;;;;;;;;22.21;61.18;101859.25;5009654;28;3045;-64
2022/10/06 06:09:22;;;;;;;;;;;;;;;21.73;61.52;101870.28;5010515;28;3234;-62
2022/10/06 06:11:51;;;;;;;;;;;;;;;21.59;62.31;101872.34;5009078;28;2950;-55
2022/10/06 06:17:15;;;;;;;;;;;;;;;21.50;60.08;101887.69;5016665;28;2915;-62
2022/10/06 06:19:41;;;;;;;;;;;;;;;21.51;60.90;101900.72;5034917;28;3158;-63
2022/10/06 06:22:08;;;;;;;;;;;;;;;21.50;61.38;101904.97;5025476;28;3106;-62
2022/10/06 06:24:37;;;;;;;;;;;;;;;21.52;61.70;101905.09;5010493;28;3182;-62
2022/10/06 06:27:04;;;;;;;;;;;;;;;21.50;61.72;101917.25;5025471;28;3058;-62
2022/10/06 06:29:30;;;;;;;;;;;;;;;21.53;61.54;101926.75;5024772;28;2964;-62
2022/10/06 06:31:57;;;;;;;;;;;;;;;21.51;61.70;101918.75;5017673;28;3063;-62
2022/10/06 06:34:24;;;;;;;;;;;;;;;21.53;61.74;101924.66;5009213;28;2979;-61
2022/10/06 06:36:53;;;;;;;;;;;;;;;21.53;62.02;101932.53;5009660;28;3048;-62
2022/10/06 06:39:20;;;;;;;;;;;;;;;21.53;61.69;101944.06;5024225;28;2971;-63
2022/10/06 06:41:48;;;;;;;;;;;;;;;21.54;61.89;101940.53;5005077;28;3418;-63
2022/10/06 06:44:33;;;;;;;;;;;;;;;21.63;61.67;101953.31;5007573;28;5147;-66
2022/10/06 06:47:08;;;;;;;;;;;;;;;22.06;60.98;101957.88;5001415;28;3076;-62
2022/10/06 06:49:34;;;;;;;;;;;;;;;21.74;60.77;101954.66;5022827;28;4182;-62
2022/10/06 06:52:05;;;;;;;;;;;;;;;21.90;61.00;101957.72;5007830;28;4663;-60
2022/10/06 06:54:33;;;;;;;;;;;;;;;21.86;60.51;101971.91;5032586;28;3069;-61
2022/10/06 06:57:08;;;;;;;;;;;;;;;22.06;60.88;101970.19;4992134;28;4683;-61
2022/10/06 06:59:37;;;;;;;;;;;;;;;22.18;60.47;101976.63;4998709;28;3234;-61
2022/10/06 07:02:05;;;;;;;;;;;;;;;22.26;60.31;101978.50;5004186;28;4550;-58
2022/10/06 07:04:36;;;;;;;;;;;;;;;22.24;60.32;101990.72;5004923;28;3409;-59
2022/10/06 07:07:03;;;;;;;;;;;;;;;22.25;60.51;101997.22;5002803;28;4585;-60
2022/10/06 07:09:33;;;;;;;;;;;;;;;22.43;60.40;101994.63;5004651;28;4055;-58
2022/10/06 07:12:03;;;;;;;;;;;;;;;22.44;60.09;102005.50;5015979;28;3252;-59
2022/10/06 07:14:30;;;;;;;;;;;;;;;22.51;60.16;102018.16;5033678;28;1687;-60
2022/10/06 07:25:20;;;;;;;;;;;;;;;22.59;59.74;102033.78;5018607;28;1731;-58
2022/10/06 07:27:54;;;;;;;;;;;;;;;22.59;59.81;102036.69;5021157;28;2651;-57
2022/10/06 07:30:25;;;;;;;;;;;;;;;22.60;59.81;102054.75;5016506;28;3060;-57
2022/10/06 07:32:57;;;;;;;;;;;;;;;22.61;59.53;102053.38;5025729;28;3145;-58
2022/10/06 07:35:24;;;;;;;;;;;;;;;22.65;59.38;102047.81;5014343;28;3218;-60
2022/10/06 07:37:52;;;;;;;;;;;;;;;22.63;59.38;102059.25;5014790;28;3025;-59
2022/10/06 07:40:20;;;;;;;;;;;;;;;22.71;59.81;102058.97;5021485;28;2987;-61
2022/10/06 07:42:47;;;;;;;;;;;;;;;22.68;59.91;102060.25;5013531;28;3441;-59
2022/10/06 07:45:37;;;;;;;;;;;;;;;22.69;59.92;102067.50;5011264;28;3036;-60
2022/10/06 07:48:18;;;;;;;;;;;;;;;22.68;59.42;102077.56;5017312;28;3128;-60
2022/10/06 07:50:50;;;;;;;;;;;;;;;22.71;59.40;102073.41;5006412;28;3097;-59
2022/10/06 07:53:26;;;;;;;;;;;;;;;22.66;59.37;102074.56;5005533;28;3512;-60
2022/10/06 07:56:01;;;;;;;;;;;;;;;22.59;59.69;102077.09;5006288;28;3301;-60
2022/10/06 07:58:30;;;;;;;;;;;;;;;22.65;59.28;102078.81;5005582;28;3183;-59
2022/10/06 08:01:02;;;;;;;;;;;;;;;22.12;56.88;102083.03;5019757;28;3312;-60
2022/10/06 08:03:28;;;;;;;;;;;;;;;22.01;59.24;102095.34;5004557;28;3192;-57
2022/10/06 08:05:59;;;;;;;;;;;;;;;22.04;59.57;102094.09;5007910;28;3315;-60
2022/10/06 08:08:25;;;;;;;;;;;;;;;22.06;59.92;102105.75;5007992;28;3260;-59
2022/10/06 08:10:55;;;;;;;;;;;;;;;21.96;58.67;102105.16;5004356;28;3209;-62
2022/10/06 08:13:21;;;;;;;;;;;;;;;21.79;57.16;102109.19;5011906;28;4743;-61
2022/10/06 08:15:49;;;;;;;;;;;;;;;21.92;56.34;102116.44;5015648;28;3059;-58
2022/10/06 08:18:16;;;;;;;;;;;;;;;22.17;56.60;102119.41;5008285;28;3273;-60
2022/10/06 08:21:15;;;;;;;;;;;;;;;22.38;57.17;102121.38;5013261;28;3208;-60
2022/10/06 08:23:41;;;;;;;;;;;;;;;22.41;57.17;102130.16;5017325;28;3150;-59
2022/10/06 08:26:08;;;;;;;;;;;;;;;22.50;57.61;102132.88;5012235;28;3631;-59
2022/10/06 08:28:35;;;;;;;;;;;;;;;22.40;58.33;102138.03;5007014;28;3183;-60
2022/10/06 08:31:02;;;;;;;;;;;;;;;22.16;59.24;102134.47;5013135;28;3221;-58
2022/10/06 08:33:29;;;;;;;;;;;;;;;22.11;59.22;102147.88;5013344;28;3101;-58
2022/10/06 08:36:00;;;;;;;;;;;;;;;22.02;60.02;102148.78;5013974;28;3162;-58
2022/10/06 08:38:26;;;;;;;;;;;;;;;22.15;59.91;102151.03;5012856;28;3120;-59
2022/10/06 08:40:53;;;;;;;;;;;;;;;22.54;58.78;102152.53;5015892;28;1832;-64
2022/10/06 08:43:19;;;;;;;;;;;;;;;22.80;58.62;102162.00;5018632;28;2946;-62
2022/10/06 08:45:46;;;;;;;;;;;;;;;22.83;58.10;102163.59;5031194;28;1783;-62
2022/10/06 08:48:27;;;;;;;;;;;;;;;22.79;58.32;102169.13;5023619;28;1576;-62
2022/10/06 08:51:04;;;;;;;;;;;;;;;22.91;58.34;102169.84;5017170;28;1921;-62
2022/10/06 08:53:38;;;;;;;;;;;;;;;22.96;57.75;102171.56;5001645;28;3385;-62
2022/10/06 08:56:11;;;;;;;;;;;;;;;22.97;57.67;102170.16;4999448;28;4276;-62
2022/10/06 08:58:39;;;;;;;;;;;;;;;23.00;57.53;102180.50;5020273;28;3777;-62
2022/10/06 09:01:06;;;;;;;;;;;;;;;22.92;58.16;102180.00;5010001;28;3238;-63
2022/10/06 09:03:32;;;;;;;;;;;;;;;22.94;58.17;102180.13;5009321;28;3367;-57
2022/10/06 09:06:13;;;;;;;;;;;;;;;23.06;57.96;102185.84;5003562;28;3244;-57
2022/10/06 09:08:42;;;;;;;;;;;;;;;23.13;57.25;102195.63;5006144;28;3788;-60
2022/10/06 09:11:31;;;;;;;;;;;;;;;23.02;57.83;102193.53;5012050;28;3589;-59
2022/10/06 09:14:02;;;;;;;;;;;;;;;22.86;57.91;102197.00;4994272;28;3223;-58
2022/10/06 09:16:31;;;;;;;;;;;;;;;22.84;58.16;102199.78;5010971;28;3435;-58
2022/10/06 09:19:07;;;;;;;;;;;;;;;23.12;57.22;102208.56;5019175;28;3241;-58
2022/10/06 09:21:39;;;;;;;;;;;;;;;22.97;57.84;102213.50;5012291;28;3693;-59
2022/10/06 09:24:06;;;;;;;;;;;;;;;22.95;57.61;102213.41;5015919;28;3081;-58
2022/10/06 09:26:32;;;;;;;;;;;;;;;23.02;57.69;102213.75;5005933;28;3219;-59
2022/10/06 09:28:59;;;;;;;;;;;;;;;23.04;57.62;102205.97;5007019;28;3948;-57
2022/10/06 09:31:30;;;;;;;;;;;;;;;23.07;57.66;102221.31;5010272;28;3236;-57
2022/10/06 09:34:03;;;;;;;;;;;;;;;22.68;58.04;102224.81;5016554;28;3073;-56
2022/10/06 09:36:29;;;;;;;;;;;;;;;22.24;54.78;102226.53;5011495;28;3024;-53
2022/10/06 09:38:56;;;;;;;;;;;;;;;21.95;51.92;102236.34;5008774;28;3067;-57
2022/10/06 09:41:24;;;;;;;;;;;;;;;22.32;53.92;102224.91;5006114;28;3464;-61
2022/10/06 09:43:55;;;;;;;;;;;;;;;22.59;53.34;102244.53;5015209;28;3294;-61
2022/10/06 09:46:34;;;;;;;;;;;;;;;22.72;54.03;102230.81;5015086;28;4506;-61
2022/10/06 09:49:04;;;;;;;;;;;;;;;22.77;54.40;102230.44;5010766;28;3136;-62
2022/10/06 09:51:35;;;;;;;;;;;;;;;22.89;54.37;102236.16;5014051;28;2896;-58
2022/10/06 09:54:02;;;;;;;;;;;;;;;22.87;53.81;102238.94;5014477;28;2033;-57
2022/10/06 09:56:29;;;;;;;;;;;;;;;22.71;54.84;102244.50;5014146;28;3220;-56
2022/10/06 09:58:56;;;;;;;;;;;;;;;22.82;55.05;102242.22;5024724;28;3188;-63
2022/10/06 10:01:22;;;;;;;;;;;;;;;22.97;55.11;102248.16;5008756;28;3083;-61
2022/10/06 10:03:50;;;;;;;;;;;;;;;22.69;55.97;102249.41;5045678;28;3461;-63
2022/10/06 10:06:37;;;;;;;;;;;;;;;22.90;56.77;102260.00;5030674;28;3072;-64
2022/10/06 10:09:11;;;;;;;;;;;;;;;22.80;57.06;102260.19;5012288;28;3076;-62
2022/10/06 10:14:27;;;;;;;;;;;;;;;23.11;56.29;102271.41;5027338;28;1637;-55
2022/10/06 10:16:53;;;;;;;;;;;;;;;23.17;56.24;102265.22;5016313;28;3068;-56
2022/10/06 10:19:24;;;;;;;;;;;;;;;23.13;57.32;102265.72;5033177;28;1588;-59
2022/10/06 10:21:52;;;;;;;;;;;;;;;23.14;56.74;102266.50;5031016;28;1747;-59
2022/10/06 10:24:22;;;;;;;;;;;;;;;23.11;57.36;102279.28;5015175;28;1592;-59
2022/10/06 10:26:52;;;;;;;;;;;;;;;23.08;57.81;102280.56;5027731;28;1600;-62
2022/10/06 10:29:29;;;;;;;;;;;;;;;22.96;58.46;102275.56;5015980;28;3255;-60
2022/10/06 10:32:01;;;;;;;;;;;;;;;23.05;58.06;102265.25;5014222;28;1588;-61
2022/10/06 10:34:46;;;;;;;;;;;;;;;23.14;58.10;102278.03;5021950;28;1678;-58
2022/10/06 10:37:14;;;;;;;;;;;;;;;23.14;58.49;102278.78;5012842;28;2275;-58
2022/10/06 10:39:48;;;;;;;;;;;;;;;23.14;58.11;102284.56;5015314;28;1767;-60
2022/10/06 10:42:17;;;;;;;;;;;;;;;23.14;58.34;102286.72;5032122;28;1590;-61
2022/10/06 10:44:47;;;;;;;;;;;;;;;23.13;58.43;102288.84;5015250;28;1641;-57
2022/10/06 10:47:16;;;;;;;;;;;;;;;23.10;58.70;102277.81;5030941;28;1683;-58
2022/10/06 10:49:44;;;;;;;;;;;;;;;23.15;59.11;102291.84;5016354;28;2019;-58
2022/10/06 10:52:14;;;;;;;;;;;;;;;23.20;59.12;102287.03;5014195;28;1800;-60
2022/10/06 10:54:59;;;;;;;;;;;;;;;23.25;59.50;102288.81;5022145;28;1687;-61
2022/10/06 10:57:28;;;;;;;;;;;;;;;23.20;59.14;102292.81;5018808;28;1633;-59
2022/10/06 11:00:27;;;;;;;;;;;;;;;23.15;59.12;102285.31;5047721;28;1576;-58
2022/10/06 11:02:54;;;;;;;;;;;;;;;23.19;59.53;102297.84;5010331;28;3111;-58
2022/10/06 11:05:39;;;;;;;;;;;;;;;23.17;59.66;102294.84;5013138;28;3127;-60
2022/10/06 11:08:09;;;;;;;;;;;;;;;23.09;59.91;102296.50;5014814;28;3069;-61
2022/10/06 11:10:41;;;;;;;;;;;;;;;23.29;59.79;102314.28;5015402;28;3088;-57
2022/10/06 11:13:27;;;;;;;;;;;;;;;23.21;60.04;102305.91;5017970;28;3128;-61
2022/10/06 11:16:10;;;;;;;;;;;;;;;23.19;60.15;102320.97;5022424;28;1733;-61
2022/10/06 11:18:37;;;;;;;;;;;;;;;22.84;60.30;102306.63;5015862;28;1606;-60
2022/10/06 11:21:09;;;;;;;;;;;;;;;22.80;60.03;102321.56;5021109;28;1865;-58
2022/10/06 11:23:54;;;;;;;;;;;;;;;22.71;54.52;102316.69;5018760;28;1596;-62
2022/10/06 11:26:31;;;;;;;;;;;;;;;22.89;53.17;102308.38;5015743;28;3129;-58
2022/10/06 11:28:59;;;;;;;;;;;;;;;22.61;52.39;102327.66;5012226;28;3018;-69
2022/10/06 11:31:33;;;;;;;;;;;;;;;22.81;53.96;102316.53;5010338;28;4713;-60
2022/10/06 11:34:00;;;;;;;;;;;;;;;22.87;53.47;102322.69;5010577;28;4308;-61
2022/10/06 11:36:33;;;;;;;;;;;;;;;22.86;52.81;102306.00;5005130;28;4309;-61
2022/10/06 11:39:01;;;;;;;;;;;;;;;22.85;52.85;102316.06;5010637;28;2633;-59
2022/10/06 11:41:30;;;;;;;;;;;;;;;22.89;51.81;102317.03;5018842;28;3034;-58
2022/10/06 11:44:04;;;;;;;;;;;;;;;22.91;51.49;102325.84;5016996;28;3195;-61
2022/10/06 11:46:35;;;;;;;;;;;;;;;22.92;51.96;102318.66;5013483;28;3104;-58
2022/10/06 11:49:22;;;;;;;;;;;;;;;22.92;52.97;102327.31;5016830;28;3076;-59
2022/10/06 11:51:48;;;;;;;;;;;;;;;22.92;55.05;102326.56;5012559;28;2930;-63
2022/10/06 11:54:33;;;;;;;;;;;;;;;22.87;54.13;102324.84;5019738;28;2883;-62
2022/10/06 11:56:59;;;;;;;;;;;;;;;22.77;47.89;102325.00;5010628;28;4484;-60
2022/10/06 11:59:27;;;;;;;;;;;;;;;22.54;46.41;102343.09;5015829;28;4002;-58
2022/10/06 12:01:54;;;;;;;;;;;;;;;22.81;45.05;102328.09;5013515;28;3105;-65
2022/10/06 12:04:21;;;;;;;;;;;;;;;22.68;43.66;102331.66;5016356;28;4460;-60
2022/10/06 12:06:50;;;;;;;;;;;;;;;22.77;45.38;102330.78;5015734;28;4481;-59
2022/10/06 12:09:37;;;;;;;;;;;;;;;22.91;45.20;102328.72;5014383;28;3006;-60
2022/10/06 12:12:17;;;;;;;;;;;;;;;22.86;46.83;102340.66;5017682;28;3599;-69
2022/10/06 12:14:49;;;;;;;;;;;;;;;22.72;46.88;102337.66;5018624;28;2925;-59
2022/10/06 12:17:37;;;;;;;;;;;;;;;22.76;45.60;102330.00;5005294;28;4567;-59
2022/10/06 12:20:11;;;;;;;;;;;;;;;22.84;44.12;102326.09;5011905;28;3106;-59
2022/10/06 12:22:39;;;;;;;;;;;;;;;22.71;43.02;102336.91;5025621;28;2852;-56
2022/10/06 12:25:12;;;;;;;;;;;;;;;22.49;42.85;102332.66;5012395;28;3405;-62
2022/10/06 12:27:41;;;;;;;;;;;;;;;22.41;43.51;102327.16;5001592;28;3021;-58
2022/10/06 12:30:21;;;;;;;;;;;;;;;22.46;45.36;102339.72;4997246;28;3171;-57
2022/10/06 12:32:48;;;;;;;;;;;;;;;22.59;45.86;102336.19;5012955;28;3882;-58
2022/10/06 12:35:15;;;;;;;;;;;;;;;22.79;46.02;102342.41;5011970;28;3140;-59
2022/10/06 12:37:43;;;;;;;;;;;;;;;22.98;45.48;102336.34;5016119;28;3188;-60
2022/10/06 12:40:27;;;;;;;;;;;;;;;23.02;46.35;102329.31;5004600;28;3058;-59
2022/10/06 12:43:08;;;;;;;;;;;;;;;23.04;47.66;102335.97;5010042;28;4607;-70
2022/10/06 12:45:34;;;;;;;;;;;;;;;23.14;48.47;102342.38;5016028;28;3371;-69
2022/10/06 12:48:01;;;;;;;;;;;;;;;23.10;49.40;102347.16;5023126;28;3484;-68
2022/10/06 12:50:28;;;;;;;;;;;;;;;23.15;50.09;102338.06;5015507;28;2932;-68
2022/10/06 12:52:56;;;;;;;;;;;;;;;23.16;50.98;102338.84;5026989;28;3093;-67
2022/10/06 12:55:27;;;;;;;;;;;;;;;23.16;51.30;102333.06;5023505;28;3042;-68
2022/10/06 12:57:53;;;;;;;;;;;;;;;23.10;51.78;102330.56;5015717;28;2629;-64
2022/10/06 13:00:22;;;;;;;;;;;;;;;23.20;51.98;102345.63;5009559;28;2991;-63
2022/10/06 13:02:49;;;;;;;;;;;;;;;23.15;52.34;102334.44;5014155;28;3101;-57
2022/10/06 13:05:16;;;;;;;;;;;;;;;23.14;52.81;102344.50;5015625;28;2625;-60
2022/10/06 13:07:54;;;;;;;;;;;;;;;23.29;52.72;102348.97;5012691;28;3199;-59
2022/10/06 13:10:20;;;;;;;;;;;;;;;23.02;52.27;102343.78;5002942;28;3080;-50
2022/10/06 13:12:49;;;;;;;;;;;;;;;23.07;52.41;102342.66;5011662;28;2974;-60